sensor_id;sensor_type;location;lat;lon;timestamp;temperature;humidity
11908;DHT22;6014;47.690;9.130;2023-05-10T00:02:08;13.30;99.90
11908;DHT22;6014;47.690;9.130;2023-05-10T00:04:38;13.30;99.90
11908;DHT22;6014;47.690;9.130;2023-05-10T00:07:06;13.20;99.90
11908;DHT22;6014;47.690;9.130;2023-05-10T00:09:34;13.20;99.90
11908;DHT22;6014;47.690;9.130;2023-05-10T00:12:10;13.20;99.90
11908;DHT22;6014;47.690;9.130;2023-05-10T00:14:38;13.20;99.90
11908;DHT22;6014;47.690;9.130;2023-05-10T00:17:06;13.20;99.90
11908;DHT22;6014;47.690;9.130;2023-05-10T00:19:34;13.20;99.90
11908;DHT22;6014;47.690;9.130;2023-05-10T00:22:02;13.10;99.90
11908;DHT22;6014;47.690;9.130;2023-05-10T00:24:30;13.10;99.90
11908;DHT22;6014;47.690;9.130;2023-05-10T00:26:58;13.10;99.90
11908;DHT22;6014;47.690;9.130;2023-05-10T00:29:30;13.10;99.90
11908;DHT22;6014;47.690;9.130;2023-05-10T00:32:00;13.10;99.90
11908;DHT22;6014;47.690;9.130;2023-05-10T00:34:37;13.10;99.90
11908;DHT22;6014;47.690;9.130;2023-05-10T00:37:14;13.10;99.90
11908;DHT22;6014;47.690;9.130;2023-05-10T00:39:42;13.10;99.90
11908;DHT22;6014;47.690;9.130;2023-05-10T00:42:11;13.10;99.90
11908;DHT22;6014;47.690;9.130;2023-05-10T00:44:40;13.10;99.90
11908;DHT22;6014;47.690;9.130;2023-05-10T00:47:08;13.10;99.90
11908;DHT22;6014;47.690;9.130;2023-05-10T00:49:37;13.10;99.90
11908;DHT22;6014;47.690;9.130;2023-05-10T00:52:05;13.10;99.90
11908;DHT22;6014;47.690;9.130;2023-05-10T00:54:33;13.10;99.90
11908;DHT22;6014;47.690;9.130;2023-05-10T00:57:02;13.10;99.90
11908;DHT22;6014;47.690;9.130;2023-05-10T00:59:30;13.00;99.90
11908;DHT22;6014;47.690;9.130;2023-05-10T01:02:00;13.00;99.90
11908;DHT22;6014;47.690;9.130;2023-05-10T01:04:28;13.00;99.90
11908;DHT22;6014;47.690;9.130;2023-05-10T01:06:57;13.00;99.90
11908;DHT22;6014;47.690;9.130;2023-05-10T01:09:26;13.00;99.90
11908;DHT22;6014;47.690;9.130;2023-05-10T01:11:54;13.00;99.90
11908;DHT22;6014;47.690;9.130;2023-05-10T01:14:23;13.00;99.90
11908;DHT22;6014;47.690;9.130;2023-05-10T01:17:00;13.00;99.90
11908;DHT22;6014;47.690;9.130;2023-05-10T01:19:34;13.00;99.90
11908;DHT22;6014;47.690;9.130;2023-05-10T01:22:13;13.00;99.90
11908;DHT22;6014;47.690;9.130;2023-05-10T01:25:17;13.00;99.90
11908;DHT22;6014;47.690;9.130;2023-05-10T01:31:08;13.10;99.90
11908;DHT22;6014;47.690;9.130;2023-05-10T01:34:01;13.10;99.90
11908;DHT22;6014;47.690;9.130;2023-05-10T01:36:39;13.10;99.90
11908;DHT22;6014;47.690;9.130;2023-05-10T01:39:11;13.10;99.90
11908;DHT22;6014;47.690;9.130;2023-05-10T01:41:47;13.10;99.90
11908;DHT22;6014;47.690;9.130;2023-05-10T01:44:24;13.10;99.90
11908;DHT22;6014;47.690;9.130;2023-05-10T01:46:55;13.10;99.90
11908;DHT22;6014;47.690;9.130;2023-05-10T01:49:31;13.20;99.90
11908;DHT22;6014;47.690;9.130;2023-05-10T01:52:06;13.10;99.90
11908;DHT22;6014;47.690;9.130;2023-05-10T01:54:38;13.10;99.90
11908;DHT22;6014;47.690;9.130;2023-05-10T01:57:09;13.10;99.90
11908;DHT22;6014;47.690;9.130;2023-05-10T01:59:39;13.10;99.90
11908;DHT22;6014;47.690;9.130;2023-05-10T02:02:10;13.10;99.90
11908;DHT22;6014;47.690;9.130;2023-05-10T02:04:41;13.20;99.90
11908;DHT22;6014;47.690;9.130;2023-05-10T02:07:09;13.10;99.90
11908;DHT22;6014;47.690;9.130;2023-05-10T02:09:38;13.20;99.90
11908;DHT22;6014;47.690;9.130;2023-05-10T02:12:07;13.20;99.90
11908;DHT22;6014;47.690;9.130;2023-05-10T02:14:37;13.10;99.90
11908;DHT22;6014;47.690;9.130;2023-05-10T02:17:15;13.10;99.90
11908;DHT22;6014;47.690;9.130;2023-05-10T02:19:48;13.10;99.90
11908;DHT22;6014;47.690;9.130;2023-05-10T02:22:18;13.10;99.90
11908;DHT22;6014;47.690;9.130;2023-05-10T02:24:47;13.10;99.90
11908;DHT22;6014;47.690;9.130;2023-05-10T02:27:17;13.10;99.90
11908;DHT22;6014;47.690;9.130;2023-05-10T02:29:46;13.10;99.90
11908;DHT22;6014;47.690;9.130;2023-05-10T02:32:16;13.10;99.90
11908;DHT22;6014;47.690;9.130;2023-05-10T02:34:48;13.10;99.90
11908;DHT22;6014;47.690;9.130;2023-05-10T02:37:19;13.10;99.90
11908;DHT22;6014;47.690;9.130;2023-05-10T02:39:49;13.20;99.90
11908;DHT22;6014;47.690;9.130;2023-05-10T02:42:24;13.20;99.90
11908;DHT22;6014;47.690;9.130;2023-05-10T02:44:55;13.20;99.90
11908;DHT22;6014;47.690;9.130;2023-05-10T02:47:24;13.20;99.90
11908;DHT22;6014;47.690;9.130;2023-05-10T02:49:56;13.20;99.90
11908;DHT22;6014;47.690;9.130;2023-05-10T02:52:29;13.20;99.90
11908;DHT22;6014;47.690;9.130;2023-05-10T02:55:01;13.20;99.90
11908;DHT22;6014;47.690;9.130;2023-05-10T02:57:40;13.10;99.90
11908;DHT22;6014;47.690;9.130;2023-05-10T03:00:09;13.10;99.90
11908;DHT22;6014;47.690;9.130;2023-05-10T03:02:39;13.10;99.90
11908;DHT22;6014;47.690;9.130;2023-05-10T03:05:09;13.10;99.90
11908;DHT22;6014;47.690;9.130;2023-05-10T03:07:37;13.10;99.90
11908;DHT22;6014;47.690;9.130;2023-05-10T03:10:30;13.10;99.90
11908;DHT22;6014;47.690;9.130;2023-05-10T03:13:07;13.10;99.90
11908;DHT22;6014;47.690;9.130;2023-05-10T03:15:45;13.10;99.90
11908;DHT22;6014;47.690;9.130;2023-05-10T03:18:20;13.10;99.90
11908;DHT22;6014;47.690;9.130;2023-05-10T03:20:56;13.10;99.90
11908;DHT22;6014;47.690;9.130;2023-05-10T03:23:29;13.00;99.90
11908;DHT22;6014;47.690;9.130;2023-05-10T03:25:58;12.90;99.90
11908;DHT22;6014;47.690;9.130;2023-05-10T03:28:27;12.90;99.90
11908;DHT22;6014;47.690;9.130;2023-05-10T03:30:56;12.80;99.90
11908;DHT22;6014;47.690;9.130;2023-05-10T03:33:24;12.80;99.90
11908;DHT22;6014;47.690;9.130;2023-05-10T03:35:53;12.80;99.90
11908;DHT22;6014;47.690;9.130;2023-05-10T03:38:21;12.80;99.90
11908;DHT22;6014;47.690;9.130;2023-05-10T03:40:49;12.80;99.90
11908;DHT22;6014;47.690;9.130;2023-05-10T03:43:18;12.80;99.90
11908;DHT22;6014;47.690;9.130;2023-05-10T03:45:46;12.70;99.90
11908;DHT22;6014;47.690;9.130;2023-05-10T03:48:14;12.70;99.90
11908;DHT22;6014;47.690;9.130;2023-05-10T03:50:49;12.70;99.90
11908;DHT22;6014;47.690;9.130;2023-05-10T03:53:18;12.70;99.90
11908;DHT22;6014;47.690;9.130;2023-05-10T03:55:47;12.60;99.90
11908;DHT22;6014;47.690;9.130;2023-05-10T03:58:15;12.70;99.90
11908;DHT22;6014;47.690;9.130;2023-05-10T04:00:43;12.60;99.90
11908;DHT22;6014;47.690;9.130;2023-05-10T04:03:12;12.60;99.90
11908;DHT22;6014;47.690;9.130;2023-05-10T04:05:41;12.70;99.90
11908;DHT22;6014;47.690;9.130;2023-05-10T04:08:09;12.70;99.90
11908;DHT22;6014;47.690;9.130;2023-05-10T04:10:44;12.80;99.90
11908;DHT22;6014;47.690;9.130;2023-05-10T04:13:12;12.80;99.90
11908;DHT22;6014;47.690;9.130;2023-05-10T04:15:44;12.90;99.90
11908;DHT22;6014;47.690;9.130;2023-05-10T04:18:13;12.90;99.90
11908;DHT22;6014;47.690;9.130;2023-05-10T04:20:41;13.00;99.90
11908;DHT22;6014;47.690;9.130;2023-05-10T04:23:11;12.90;99.90
11908;DHT22;6014;47.690;9.130;2023-05-10T04:25:40;12.90;99.90
11908;DHT22;6014;47.690;9.130;2023-05-10T04:28:10;13.00;99.90
11908;DHT22;6014;47.690;9.130;2023-05-10T04:30:38;13.00;99.90
11908;DHT22;6014;47.690;9.130;2023-05-10T04:33:07;13.00;99.90
11908;DHT22;6014;47.690;9.130;2023-05-10T04:35:35;13.10;99.90
11908;DHT22;6014;47.690;9.130;2023-05-10T04:38:03;13.10;99.90
11908;DHT22;6014;47.690;9.130;2023-05-10T04:40:31;13.10;99.90
11908;DHT22;6014;47.690;9.130;2023-05-10T04:42:59;13.10;99.90
11908;DHT22;6014;47.690;9.130;2023-05-10T04:45:29;13.10;99.90
11908;DHT22;6014;47.690;9.130;2023-05-10T04:47:57;13.10;99.90
11908;DHT22;6014;47.690;9.130;2023-05-10T04:50:27;13.10;99.90
11908;DHT22;6014;47.690;9.130;2023-05-10T04:52:55;13.10;99.90
11908;DHT22;6014;47.690;9.130;2023-05-10T04:55:41;13.10;99.90
11908;DHT22;6014;47.690;9.130;2023-05-10T04:58:09;13.10;99.90
11908;DHT22;6014;47.690;9.130;2023-05-10T05:00:41;13.10;99.90
11908;DHT22;6014;47.690;9.130;2023-05-10T05:03:09;13.10;99.90
11908;DHT22;6014;47.690;9.130;2023-05-10T05:05:38;13.10;99.90
11908;DHT22;6014;47.690;9.130;2023-05-10T05:08:06;13.20;99.90
11908;DHT22;6014;47.690;9.130;2023-05-10T05:10:34;13.20;99.90
11908;DHT22;6014;47.690;9.130;2023-05-10T05:13:02;13.20;99.90
11908;DHT22;6014;47.690;9.130;2023-05-10T05:15:30;13.20;99.90
11908;DHT22;6014;47.690;9.130;2023-05-10T05:17:59;13.20;99.90
11908;DHT22;6014;47.690;9.130;2023-05-10T05:20:28;13.20;99.90
11908;DHT22;6014;47.690;9.130;2023-05-10T05:22:56;13.20;99.90
11908;DHT22;6014;47.690;9.130;2023-05-10T05:25:24;13.20;99.90
11908;DHT22;6014;47.690;9.130;2023-05-10T05:27:52;13.20;99.90
11908;DHT22;6014;47.690;9.130;2023-05-10T05:30:20;13.20;99.90
11908;DHT22;6014;47.690;9.130;2023-05-10T05:32:48;13.20;99.90
11908;DHT22;6014;47.690;9.130;2023-05-10T05:35:18;13.30;99.90
11908;DHT22;6014;47.690;9.130;2023-05-10T05:37:46;13.30;99.90
11908;DHT22;6014;47.690;9.130;2023-05-10T05:40:15;13.20;99.90
11908;DHT22;6014;47.690;9.130;2023-05-10T05:42:43;13.20;99.90
11908;DHT22;6014;47.690;9.130;2023-05-10T05:45:11;13.20;99.90
11908;DHT22;6014;47.690;9.130;2023-05-10T05:47:40;13.20;99.90
11908;DHT22;6014;47.690;9.130;2023-05-10T05:50:09;13.10;99.90
11908;DHT22;6014;47.690;9.130;2023-05-10T05:52:46;13.10;99.90
11908;DHT22;6014;47.690;9.130;2023-05-10T05:55:14;13.10;99.90
11908;DHT22;6014;47.690;9.130;2023-05-10T05:57:42;13.10;99.90
11908;DHT22;6014;47.690;9.130;2023-05-10T06:00:11;13.10;99.90
11908;DHT22;6014;47.690;9.130;2023-05-10T06:02:39;13.10;99.90
11908;DHT22;6014;47.690;9.130;2023-05-10T06:05:08;13.10;99.90
11908;DHT22;6014;47.690;9.130;2023-05-10T06:07:36;13.20;99.90
11908;DHT22;6014;47.690;9.130;2023-05-10T06:10:07;13.20;99.90
11908;DHT22;6014;47.690;9.130;2023-05-10T06:12:35;13.30;99.90
11908;DHT22;6014;47.690;9.130;2023-05-10T06:15:04;13.30;99.90
11908;DHT22;6014;47.690;9.130;2023-05-10T06:17:32;13.30;99.90
11908;DHT22;6014;47.690;9.130;2023-05-10T06:20:00;13.30;99.90
11908;DHT22;6014;47.690;9.130;2023-05-10T06:22:28;13.40;99.90
11908;DHT22;6014;47.690;9.130;2023-05-10T06:24:56;13.50;99.90
11908;DHT22;6014;47.690;9.130;2023-05-10T06:27:26;13.50;99.90
11908;DHT22;6014;47.690;9.130;2023-05-10T06:29:54;13.50;99.90
11908;DHT22;6014;47.690;9.130;2023-05-10T06:32:31;13.50;99.90
11908;DHT22;6014;47.690;9.130;2023-05-10T06:34:59;13.50;99.90
11908;DHT22;6014;47.690;9.130;2023-05-10T06:37:27;13.50;99.90
11908;DHT22;6014;47.690;9.130;2023-05-10T06:39:55;13.60;99.90
11908;DHT22;6014;47.690;9.130;2023-05-10T06:42:23;13.50;99.90
11908;DHT22;6014;47.690;9.130;2023-05-10T06:44:53;13.60;99.90
11908;DHT22;6014;47.690;9.130;2023-05-10T06:47:21;13.50;99.90
11908;DHT22;6014;47.690;9.130;2023-05-10T06:49:49;13.60;99.90
11908;DHT22;6014;47.690;9.130;2023-05-10T06:52:18;13.60;99.90
11908;DHT22;6014;47.690;9.130;2023-05-10T06:54:46;13.60;99.90
11908;DHT22;6014;47.690;9.130;2023-05-10T06:57:14;13.60;99.90
11908;DHT22;6014;47.690;9.130;2023-05-10T06:59:59;13.70;99.90
11908;DHT22;6014;47.690;9.130;2023-05-10T07:02:27;13.60;99.90
11908;DHT22;6014;47.690;9.130;2023-05-10T07:04:55;13.70;99.90
11908;DHT22;6014;47.690;9.130;2023-05-10T07:07:28;13.70;99.90
11908;DHT22;6014;47.690;9.130;2023-05-10T07:09:58;13.80;99.90
11908;DHT22;6014;47.690;9.130;2023-05-10T07:12:26;14.00;99.90
11908;DHT22;6014;47.690;9.130;2023-05-10T07:14:54;13.90;99.90
11908;DHT22;6014;47.690;9.130;2023-05-10T07:17:23;13.90;99.90
11908;DHT22;6014;47.690;9.130;2023-05-10T07:19:52;14.00;99.90
11908;DHT22;6014;47.690;9.130;2023-05-10T07:22:20;14.00;99.90
11908;DHT22;6014;47.690;9.130;2023-05-10T07:24:48;14.00;99.90
11908;DHT22;6014;47.690;9.130;2023-05-10T07:27:16;14.10;99.90
11908;DHT22;6014;47.690;9.130;2023-05-10T07:29:44;14.10;99.90
11908;DHT22;6014;47.690;9.130;2023-05-10T07:32:14;14.10;99.90
11908;DHT22;6014;47.690;9.130;2023-05-10T07:34:44;14.10;99.90
11908;DHT22;6014;47.690;9.130;2023-05-10T07:37:12;14.20;99.90
11908;DHT22;6014;47.690;9.130;2023-05-10T07:39:40;14.30;99.90
11908;DHT22;6014;47.690;9.130;2023-05-10T07:42:08;14.30;99.90
11908;DHT22;6014;47.690;9.130;2023-05-10T07:44:36;14.30;99.90
11908;DHT22;6014;47.690;9.130;2023-05-10T07:47:04;14.40;99.90
11908;DHT22;6014;47.690;9.130;2023-05-10T07:49:32;14.40;99.90
11908;DHT22;6014;47.690;9.130;2023-05-10T07:52:03;14.40;99.90
11908;DHT22;6014;47.690;9.130;2023-05-10T07:54:31;14.40;99.90
11908;DHT22;6014;47.690;9.130;2023-05-10T07:57:00;14.50;99.90
11908;DHT22;6014;47.690;9.130;2023-05-10T07:59:28;14.50;99.90
11908;DHT22;6014;47.690;9.130;2023-05-10T08:01:56;14.50;99.90
11908;DHT22;6014;47.690;9.130;2023-05-10T08:04:24;14.50;99.90
11908;DHT22;6014;47.690;9.130;2023-05-10T08:06:52;14.40;99.90
11908;DHT22;6014;47.690;9.130;2023-05-10T08:09:22;14.40;99.90
11908;DHT22;6014;47.690;9.130;2023-05-10T08:11:51;14.50;99.90
11908;DHT22;6014;47.690;9.130;2023-05-10T08:14:19;14.50;99.90
11908;DHT22;6014;47.690;9.130;2023-05-10T08:16:47;14.40;99.90
11908;DHT22;6014;47.690;9.130;2023-05-10T08:19:15;14.20;99.90
11908;DHT22;6014;47.690;9.130;2023-05-10T08:21:45;14.20;99.90
11908;DHT22;6014;47.690;9.130;2023-05-10T08:24:13;14.00;99.90
11908;DHT22;6014;47.690;9.130;2023-05-10T08:26:43;13.80;99.90
11908;DHT22;6014;47.690;9.130;2023-05-10T08:29:11;13.70;99.90
11908;DHT22;6014;47.690;9.130;2023-05-10T08:31:39;13.70;99.90
11908;DHT22;6014;47.690;9.130;2023-05-10T08:34:08;13.70;99.90
11908;DHT22;6014;47.690;9.130;2023-05-10T08:36:36;13.80;99.90
11908;DHT22;6014;47.690;9.130;2023-05-10T08:39:04;13.90;99.90
11908;DHT22;6014;47.690;9.130;2023-05-10T08:41:47;14.00;99.90
11908;DHT22;6014;47.690;9.130;2023-05-10T08:44:15;14.10;99.90
11908;DHT22;6014;47.690;9.130;2023-05-10T08:46:46;14.20;99.90
11908;DHT22;6014;47.690;9.130;2023-05-10T08:49:17;14.30;99.90
11908;DHT22;6014;47.690;9.130;2023-05-10T08:51:50;14.30;99.90
11908;DHT22;6014;47.690;9.130;2023-05-10T08:54:19;14.50;99.90
11908;DHT22;6014;47.690;9.130;2023-05-10T08:56:48;14.50;99.90
11908;DHT22;6014;47.690;9.130;2023-05-10T08:59:16;14.50;99.90
11908;DHT22;6014;47.690;9.130;2023-05-10T09:01:45;14.70;99.90
11908;DHT22;6014;47.690;9.130;2023-05-10T09:04:15;14.70;99.90
11908;DHT22;6014;47.690;9.130;2023-05-10T09:06:43;14.60;99.90
11908;DHT22;6014;47.690;9.130;2023-05-10T09:09:12;14.80;99.90
11908;DHT22;6014;47.690;9.130;2023-05-10T09:11:40;14.80;99.90
11908;DHT22;6014;47.690;9.130;2023-05-10T09:14:10;14.90;99.90
11908;DHT22;6014;47.690;9.130;2023-05-10T09:16:40;15.00;99.90
11908;DHT22;6014;47.690;9.130;2023-05-10T09:19:08;15.20;99.90
11908;DHT22;6014;47.690;9.130;2023-05-10T09:21:37;15.10;99.90
11908;DHT22;6014;47.690;9.130;2023-05-10T09:24:06;14.90;99.90
11908;DHT22;6014;47.690;9.130;2023-05-10T09:26:35;14.90;99.90
11908;DHT22;6014;47.690;9.130;2023-05-10T09:29:05;15.00;99.90
11908;DHT22;6014;47.690;9.130;2023-05-10T09:31:47;15.30;99.90
11908;DHT22;6014;47.690;9.130;2023-05-10T09:34:29;15.70;99.90
11908;DHT22;6014;47.690;9.130;2023-05-10T09:36:59;16.10;99.90
11908;DHT22;6014;47.690;9.130;2023-05-10T09:39:31;16.40;99.90
11908;DHT22;6014;47.690;9.130;2023-05-10T09:42:01;16.50;99.90
11908;DHT22;6014;47.690;9.130;2023-05-10T09:44:31;16.70;99.90
11908;DHT22;6014;47.690;9.130;2023-05-10T09:47:02;16.30;99.90
11908;DHT22;6014;47.690;9.130;2023-05-10T09:49:30;16.40;99.90
11908;DHT22;6014;47.690;9.130;2023-05-10T09:52:01;16.80;99.90
11908;DHT22;6014;47.690;9.130;2023-05-10T09:54:30;16.90;99.90
11908;DHT22;6014;47.690;9.130;2023-05-10T09:56:58;16.90;99.90
11908;DHT22;6014;47.690;9.130;2023-05-10T09:59:28;16.70;99.90
11908;DHT22;6014;47.690;9.130;2023-05-10T10:01:57;16.90;99.90
11908;DHT22;6014;47.690;9.130;2023-05-10T10:04:28;16.90;99.90
11908;DHT22;6014;47.690;9.130;2023-05-10T10:07:00;17.40;99.90
11908;DHT22;6014;47.690;9.130;2023-05-10T10:09:29;17.20;99.90
11908;DHT22;6014;47.690;9.130;2023-05-10T10:11:59;17.30;99.90
11908;DHT22;6014;47.690;9.130;2023-05-10T10:14:28;17.50;99.90
11908;DHT22;6014;47.690;9.130;2023-05-10T10:17:00;17.20;99.90
11908;DHT22;6014;47.690;9.130;2023-05-10T10:19:34;17.50;99.90
11908;DHT22;6014;47.690;9.130;2023-05-10T10:22:03;17.60;99.90
11908;DHT22;6014;47.690;9.130;2023-05-10T10:24:32;17.70;97.90
11908;DHT22;6014;47.690;9.130;2023-05-10T10:27:08;17.20;99.90
11908;DHT22;6014;47.690;9.130;2023-05-10T10:29:41;17.00;97.40
11908;DHT22;6014;47.690;9.130;2023-05-10T10:32:21;17.30;97.60
11908;DHT22;6014;47.690;9.130;2023-05-10T10:34:51;17.50;99.90
11908;DHT22;6014;47.690;9.130;2023-05-10T10:37:20;17.40;99.90
11908;DHT22;6014;47.690;9.130;2023-05-10T10:39:48;17.20;99.90
11908;DHT22;6014;47.690;9.130;2023-05-10T10:42:44;17.10;99.90
11908;DHT22;6014;47.690;9.130;2023-05-10T10:45:13;16.90;99.90
11908;DHT22;6014;47.690;9.130;2023-05-10T10:47:42;16.80;99.90
11908;DHT22;6014;47.690;9.130;2023-05-10T10:50:12;16.80;99.90
11908;DHT22;6014;47.690;9.130;2023-05-10T10:52:41;16.80;99.90
11908;DHT22;6014;47.690;9.130;2023-05-10T10:55:11;16.90;99.90
11908;DHT22;6014;47.690;9.130;2023-05-10T10:57:47;16.90;99.30
11908;DHT22;6014;47.690;9.130;2023-05-10T11:00:26;16.90;99.90
11908;DHT22;6014;47.690;9.130;2023-05-10T11:02:57;17.20;99.90
11908;DHT22;6014;47.690;9.130;2023-05-10T11:05:45;17.30;99.50
11908;DHT22;6014;47.690;9.130;2023-05-10T11:08:18;16.80;97.70
11908;DHT22;6014;47.690;9.130;2023-05-10T11:10:53;16.80;98.10
11908;DHT22;6014;47.690;9.130;2023-05-10T11:13:29;16.80;93.40
11908;DHT22;6014;47.690;9.130;2023-05-10T11:15:57;16.90;96.70
11908;DHT22;6014;47.690;9.130;2023-05-10T11:18:27;16.90;98.20
11908;DHT22;6014;47.690;9.130;2023-05-10T11:20:59;16.90;94.80
11908;DHT22;6014;47.690;9.130;2023-05-10T11:23:31;16.70;96.80
11908;DHT22;6014;47.690;9.130;2023-05-10T11:26:00;16.50;98.30
11908;DHT22;6014;47.690;9.130;2023-05-10T11:28:28;16.50;97.50
11908;DHT22;6014;47.690;9.130;2023-05-10T11:30:56;16.50;98.70
11908;DHT22;6014;47.690;9.130;2023-05-10T11:33:24;16.30;98.90
11908;DHT22;6014;47.690;9.130;2023-05-10T11:35:52;16.50;99.90
11908;DHT22;6014;47.690;9.130;2023-05-10T11:38:22;16.40;99.10
11908;DHT22;6014;47.690;9.130;2023-05-10T11:40:51;16.50;99.90
11908;DHT22;6014;47.690;9.130;2023-05-10T11:43:23;16.40;97.10
11908;DHT22;6014;47.690;9.130;2023-05-10T11:45:58;16.50;96.70
11908;DHT22;6014;47.690;9.130;2023-05-10T11:48:27;16.60;97.40
11908;DHT22;6014;47.690;9.130;2023-05-10T11:50:55;16.50;96.20
11908;DHT22;6014;47.690;9.130;2023-05-10T11:53:25;16.50;97.40
11908;DHT22;6014;47.690;9.130;2023-05-10T11:55:53;16.50;97.90
11908;DHT22;6014;47.690;9.130;2023-05-10T11:58:22;16.50;97.50
11908;DHT22;6014;47.690;9.130;2023-05-10T12:00:50;16.30;99.70
11908;DHT22;6014;47.690;9.130;2023-05-10T12:03:18;16.50;97.20
11908;DHT22;6014;47.690;9.130;2023-05-10T12:05:47;16.40;95.60
11908;DHT22;6014;47.690;9.130;2023-05-10T12:08:15;16.40;97.00
11908;DHT22;6014;47.690;9.130;2023-05-10T12:10:48;16.50;97.50
11908;DHT22;6014;47.690;9.130;2023-05-10T12:13:18;16.60;93.70
11908;DHT22;6014;47.690;9.130;2023-05-10T12:15:47;16.60;92.00
11908;DHT22;6014;47.690;9.130;2023-05-10T12:18:15;16.70;91.30
11908;DHT22;6014;47.690;9.130;2023-05-10T12:20:52;16.70;92.20
11908;DHT22;6014;47.690;9.130;2023-05-10T12:23:20;16.80;94.00
11908;DHT22;6014;47.690;9.130;2023-05-10T12:25:50;17.10;91.10
11908;DHT22;6014;47.690;9.130;2023-05-10T12:28:20;17.00;87.40
11908;DHT22;6014;47.690;9.130;2023-05-10T12:30:48;16.90;81.00
11908;DHT22;6014;47.690;9.130;2023-05-10T12:33:17;17.10;77.40
11908;DHT22;6014;47.690;9.130;2023-05-10T12:35:46;17.20;75.10
11908;DHT22;6014;47.690;9.130;2023-05-10T12:38:28;17.20;74.70
11908;DHT22;6014;47.690;9.130;2023-05-10T12:41:00;17.30;74.60
11908;DHT22;6014;47.690;9.130;2023-05-10T12:43:29;17.10;65.20
11908;DHT22;6014;47.690;9.130;2023-05-10T12:45:57;17.10;67.50
11908;DHT22;6014;47.690;9.130;2023-05-10T12:48:25;17.10;66.00
11908;DHT22;6014;47.690;9.130;2023-05-10T12:50:55;17.10;65.00
11908;DHT22;6014;47.690;9.130;2023-05-10T12:53:23;17.10;63.10
11908;DHT22;6014;47.690;9.130;2023-05-10T12:55:51;17.00;62.10
11908;DHT22;6014;47.690;9.130;2023-05-10T12:58:21;17.10;62.80
11908;DHT22;6014;47.690;9.130;2023-05-10T13:01:02;17.20;62.80
11908;DHT22;6014;47.690;9.130;2023-05-10T13:03:31;17.00;65.80
11908;DHT22;6014;47.690;9.130;2023-05-10T13:05:59;17.10;77.80
11908;DHT22;6014;47.690;9.130;2023-05-10T13:08:28;17.10;74.30
11908;DHT22;6014;47.690;9.130;2023-05-10T13:11:00;17.10;77.10
11908;DHT22;6014;47.690;9.130;2023-05-10T13:13:30;16.90;71.50
11908;DHT22;6014;47.690;9.130;2023-05-10T13:15:58;17.10;70.70
11908;DHT22;6014;47.690;9.130;2023-05-10T13:18:28;17.20;69.70
11908;DHT22;6014;47.690;9.130;2023-05-10T13:20:56;17.40;66.40
11908;DHT22;6014;47.690;9.130;2023-05-10T13:23:24;17.10;62.60
11908;DHT22;6014;47.690;9.130;2023-05-10T13:25:52;17.00;65.00
11908;DHT22;6014;47.690;9.130;2023-05-10T13:28:20;17.10;64.80
11908;DHT22;6014;47.690;9.130;2023-05-10T13:30:51;17.40;66.50
11908;DHT22;6014;47.690;9.130;2023-05-10T13:33:19;17.40;67.00
11908;DHT22;6014;47.690;9.130;2023-05-10T13:35:47;17.30;58.90
11908;DHT22;6014;47.690;9.130;2023-05-10T13:38:15;17.20;59.50
11908;DHT22;6014;47.690;9.130;2023-05-10T13:41:04;17.30;58.20
11908;DHT22;6014;47.690;9.130;2023-05-10T13:43:34;17.30;57.10
11908;DHT22;6014;47.690;9.130;2023-05-10T13:46:06;17.50;58.80
11908;DHT22;6014;47.690;9.130;2023-05-10T13:48:34;17.20;56.40
11908;DHT22;6014;47.690;9.130;2023-05-10T13:51:05;17.30;55.20
11908;DHT22;6014;47.690;9.130;2023-05-10T13:53:50;17.10;59.00
11908;DHT22;6014;47.690;9.130;2023-05-10T13:56:25;17.10;58.90
11908;DHT22;6014;47.690;9.130;2023-05-10T13:58:53;17.10;56.40
11908;DHT22;6014;47.690;9.130;2023-05-10T14:01:23;16.90;54.50
11908;DHT22;6014;47.690;9.130;2023-05-10T14:04:15;17.00;59.00
11908;DHT22;6014;47.690;9.130;2023-05-10T14:06:43;17.00;60.50
11908;DHT22;6014;47.690;9.130;2023-05-10T14:09:11;17.10;61.70
11908;DHT22;6014;47.690;9.130;2023-05-10T14:11:42;16.90;64.20
11908;DHT22;6014;47.690;9.130;2023-05-10T14:14:12;16.80;61.90
11908;DHT22;6014;47.690;9.130;2023-05-10T14:16:43;16.90;63.10
11908;DHT22;6014;47.690;9.130;2023-05-10T14:19:16;16.80;58.70
11908;DHT22;6014;47.690;9.130;2023-05-10T14:21:46;16.60;60.10
11908;DHT22;6014;47.690;9.130;2023-05-10T14:24:18;16.60;64.60
11908;DHT22;6014;47.690;9.130;2023-05-10T14:26:46;16.60;63.60
11908;DHT22;6014;47.690;9.130;2023-05-10T14:29:15;16.50;61.40
11908;DHT22;6014;47.690;9.130;2023-05-10T14:31:45;16.60;64.30
11908;DHT22;6014;47.690;9.130;2023-05-10T14:34:15;16.50;63.00
11908;DHT22;6014;47.690;9.130;2023-05-10T14:36:44;16.50;56.80
11908;DHT22;6014;47.690;9.130;2023-05-10T14:39:12;16.60;59.80
11908;DHT22;6014;47.690;9.130;2023-05-10T14:41:42;16.50;60.50
11908;DHT22;6014;47.690;9.130;2023-05-10T14:44:11;16.60;63.50
11908;DHT22;6014;47.690;9.130;2023-05-10T14:46:39;16.60;66.70
11908;DHT22;6014;47.690;9.130;2023-05-10T14:49:09;16.40;67.60
11908;DHT22;6014;47.690;9.130;2023-05-10T14:51:37;16.30;65.70
11908;DHT22;6014;47.690;9.130;2023-05-10T14:54:05;16.20;67.80
11908;DHT22;6014;47.690;9.130;2023-05-10T14:56:33;16.20;70.50
11908;DHT22;6014;47.690;9.130;2023-05-10T14:59:03;16.30;73.90
11908;DHT22;6014;47.690;9.130;2023-05-10T15:01:32;16.30;70.70
11908;DHT22;6014;47.690;9.130;2023-05-10T15:04:06;16.30;73.50
11908;DHT22;6014;47.690;9.130;2023-05-10T15:06:36;16.30;78.50
11908;DHT22;6014;47.690;9.130;2023-05-10T15:09:12;16.20;74.10
11908;DHT22;6014;47.690;9.130;2023-05-10T15:11:42;16.20;76.10
11908;DHT22;6014;47.690;9.130;2023-05-10T15:14:18;16.30;79.20
11908;DHT22;6014;47.690;9.130;2023-05-10T15:16:55;16.20;77.70
11908;DHT22;6014;47.690;9.130;2023-05-10T15:19:27;16.10;72.70
11908;DHT22;6014;47.690;9.130;2023-05-10T15:22:03;16.10;75.80
11908;DHT22;6014;47.690;9.130;2023-05-10T15:24:37;16.10;76.50
11908;DHT22;6014;47.690;9.130;2023-05-10T15:27:15;16.10;77.60
11908;DHT22;6014;47.690;9.130;2023-05-10T15:29:43;16.20;82.20
11908;DHT22;6014;47.690;9.130;2023-05-10T15:32:11;16.20;82.00
11908;DHT22;6014;47.690;9.130;2023-05-10T15:34:39;16.20;85.20
11908;DHT22;6014;47.690;9.130;2023-05-10T15:37:09;16.10;82.60
11908;DHT22;6014;47.690;9.130;2023-05-10T15:39:43;16.20;83.80
11908;DHT22;6014;47.690;9.130;2023-05-10T15:42:29;16.30;85.50
11908;DHT22;6014;47.690;9.130;2023-05-10T15:45:07;16.00;82.50
11908;DHT22;6014;47.690;9.130;2023-05-10T15:47:35;16.10;84.00
11908;DHT22;6014;47.690;9.130;2023-05-10T15:50:14;16.10;77.90
11908;DHT22;6014;47.690;9.130;2023-05-10T15:52:44;16.20;82.90
11908;DHT22;6014;47.690;9.130;2023-05-10T15:55:13;16.20;84.80
11908;DHT22;6014;47.690;9.130;2023-05-10T15:57:43;16.20;89.90
11908;DHT22;6014;47.690;9.130;2023-05-10T16:00:12;16.10;95.90
11908;DHT22;6014;47.690;9.130;2023-05-10T16:02:40;16.00;99.90
11908;DHT22;6014;47.690;9.130;2023-05-10T16:05:09;16.10;99.90
11908;DHT22;6014;47.690;9.130;2023-05-10T16:07:37;16.00;99.90
11908;DHT22;6014;47.690;9.130;2023-05-10T16:10:10;16.00;99.90